createdAt,value
2023-04-22T00:07:45.722Z,93906.80
2023-04-22T00:16:08.931Z,93861.02
2023-04-22T00:24:32.052Z,93788.68
2023-04-22T00:32:55.309Z,93725.42
2023-04-22T00:41:18.486Z,93689.26
2023-04-22T00:49:42.166Z,93681.23
2023-04-22T00:58:05.653Z,93672.64
2023-04-22T01:06:30.033Z,93631.02
2023-04-22T01:14:53.049Z,93586.41
2023-04-22T01:23:24.809Z,93564.47
2023-04-22T01:31:47.991Z,93534.69
2023-04-22T01:40:11.742Z,93502.05
2023-04-22T01:48:35.892Z,93486.73
2023-04-22T01:56:59.271Z,93467.54
2023-04-22T02:05:22.405Z,93427.86
2023-04-22T02:13:45.469Z,93396.67
2023-04-22T02:22:08.840Z,93375.25
2023-04-22T02:30:32.238Z,93317.85
2023-04-22T02:38:55.319Z,93254.70
2023-04-22T02:47:18.307Z,93239.31
2023-04-22T02:55:42.081Z,93245.73
2023-04-22T03:04:05.206Z,93214.82
2023-04-22T03:12:28.326Z,93186.38
2023-04-22T03:20:51.612Z,93160.50
2023-04-22T03:29:14.940Z,93105.21
2023-04-22T03:37:40.254Z,93096.14
2023-04-22T03:46:04.180Z,93085.08
2023-04-22T03:54:29.651Z,93060.88
2023-04-22T04:02:53.011Z,93076.39
2023-04-22T04:11:17.971Z,93315.80
2023-04-22T04:19:42.633Z,94067.48
2023-04-22T04:28:09.677Z,94827.58
2023-04-22T04:36:33.448Z,95382.55
2023-04-22T04:45:07.771Z,95449.59
2023-04-22T04:53:31.582Z,94983.42
2023-04-22T05:01:55.193Z,94772.10
2023-04-22T05:10:18.793Z,94803.86
2023-04-22T05:18:42.141Z,94730.48
2023-04-22T05:27:06.296Z,94869.30
2023-04-22T05:35:29.997Z,95292.35
2023-04-22T05:43:54.826Z,95768.92
2023-04-22T05:52:18.931Z,96268.54
2023-04-22T06:00:56.967Z,96731.55
2023-04-22T06:10:02.220Z,97116.68
2023-04-22T06:18:28.334Z,97403.48
2023-04-22T06:26:52.308Z,97590.34
2023-04-22T06:35:18.820Z,97813.63
2023-04-22T06:43:41.895Z,98028.60
2023-04-22T06:52:05.751Z,98286.73
2023-04-22T07:00:30.411Z,98573.58
2023-04-22T07:08:55.015Z,98856.39
2023-04-22T07:17:22.312Z,99063.68
2023-04-22T07:25:45.357Z,99237.32
2023-04-22T07:34:10.741Z,99217.44
2023-04-22T07:42:33.699Z,99174.63
2023-04-22T07:50:56.679Z,99127.29
2023-04-22T07:59:19.695Z,99151.95
2023-04-22T08:07:42.664Z,99158.10
2023-04-22T08:16:07.543Z,99117.03
2023-04-22T08:24:30.606Z,99289.64
2023-04-22T08:32:53.706Z,99462.05
2023-04-22T08:41:18.971Z,99583.40
2023-04-22T08:49:42.691Z,99633.97
2023-04-22T08:58:06.298Z,99705.44
2023-04-22T09:06:32.446Z,99827.59
2023-04-22T09:14:56.429Z,99807.93
2023-04-22T09:23:19.389Z,99853.36
2023-04-22T09:31:43.278Z,99814.98
2023-04-22T09:40:07.667Z,99925.73
2023-04-22T09:48:30.759Z,100025.89
2023-04-22T09:56:53.909Z,100019.89
2023-04-22T10:05:18.079Z,100162.56
2023-04-22T10:13:41.047Z,100399.36
2023-04-22T10:22:04.918Z,100486.79
2023-04-22T10:30:30.706Z,99979.70
2023-04-22T10:38:53.880Z,99506.52
2023-04-22T10:47:28.914Z,99543.05
2023-04-22T10:55:53.182Z,99839.38
2023-04-22T11:04:23.553Z,100183.48
2023-04-22T11:12:49.771Z,100344.41
2023-04-22T11:21:14.489Z,100278.52
2023-04-22T11:29:37.695Z,100250.53
2023-04-22T11:38:09.977Z,100111.10
2023-04-22T11:46:39.597Z,100146.08
2023-04-22T11:55:02.647Z,100283.69
2023-04-22T12:03:30.470Z,100436.34
2023-04-22T12:11:53.551Z,100554.33
2023-04-22T12:20:16.435Z,100464.27
2023-04-22T12:28:40.278Z,100099.48
2023-04-22T12:37:03.521Z,99686.48
2023-04-22T12:45:26.487Z,99430.95
2023-04-22T12:53:49.375Z,99350.32
2023-04-22T13:02:12.431Z,99498.45
2023-04-22T13:10:36.132Z,99688.75
2023-04-22T13:18:59.278Z,99788.94
2023-04-22T13:27:22.210Z,99728.37
2023-04-22T13:35:45.257Z,99621.63
2023-04-22T13:44:08.419Z,99491.06
2023-04-22T13:52:31.492Z,99390.80
2023-04-22T14:00:54.997Z,99333.85
2023-04-22T14:09:18.585Z,99404.17
2023-04-22T14:17:41.942Z,99477.34
2023-04-22T14:26:06.809Z,99427.37
2023-04-22T14:34:29.801Z,99359.85
2023-04-22T14:42:52.955Z,99355.45
2023-04-22T14:51:16.044Z,99278.36
2023-04-22T14:59:39.067Z,99205.52
2023-04-22T15:08:02.559Z,99138.33
2023-04-22T15:16:26.123Z,99068.86
2023-04-22T15:24:49.200Z,99010.80
2023-04-22T15:33:12.170Z,98940.19
2023-04-22T15:41:35.363Z,98860.14
2023-04-22T15:50:07.014Z,98780.77
2023-04-22T15:58:32.483Z,98707.35
2023-04-22T16:06:59.323Z,98637.59
2023-04-22T16:15:24.336Z,98575.70
2023-04-22T16:23:48.674Z,98507.52
2023-04-22T16:32:11.703Z,98425.65
2023-04-22T16:40:35.439Z,98330.49
2023-04-22T16:48:58.560Z,98240.27
2023-04-22T16:57:21.662Z,98161.45
2023-04-22T17:05:44.739Z,98103.31
2023-04-22T17:14:07.893Z,98074.18
2023-04-22T17:22:30.791Z,98029.94
2023-04-22T17:30:53.872Z,97928.80
2023-04-22T17:39:16.910Z,97772.65
2023-04-22T17:47:39.975Z,97623.40
2023-04-22T17:56:03.112Z,97455.36
2023-04-22T18:04:26.123Z,97286.73
2023-04-22T18:12:49.618Z,97111.02
2023-04-22T18:21:12.558Z,96932.04
2023-04-22T18:29:36.006Z,96750.05
2023-04-22T18:38:01.116Z,96542.26
2023-04-22T18:46:24.414Z,96377.95
2023-04-22T18:54:47.423Z,96245.85
2023-04-22T19:03:10.855Z,96106.16
2023-04-22T19:11:34.057Z,95955.68
2023-04-22T19:19:57.216Z,95827.41
2023-04-22T19:28:20.208Z,95693.07
2023-04-22T19:36:43.392Z,95574.55
2023-04-22T19:45:11.613Z,95484.11
2023-04-22T19:53:35.641Z,95404.98
2023-04-22T20:01:59.191Z,95328.45
2023-04-22T20:10:22.915Z,95257.25
2023-04-22T20:18:46.585Z,95163.32
2023-04-22T20:27:09.791Z,95082.63
2023-04-22T20:35:35.396Z,95008.29
2023-04-22T20:43:58.518Z,94933.84
2023-04-22T20:52:21.820Z,94876.13
2023-04-22T21:00:45.909Z,94854.02
2023-04-22T21:09:10.676Z,94833.05
2023-04-22T21:17:35.683Z,94788.27
2023-04-22T21:26:01.856Z,94736.28
2023-04-22T21:34:24.977Z,94661.35
2023-04-22T21:42:49.426Z,94608.27
2023-04-22T21:51:12.593Z,94588.91
2023-04-22T21:59:35.600Z,94565.69
2023-04-22T22:07:58.677Z,94516.77
2023-04-22T22:16:21.828Z,94459.36
2023-04-22T22:24:45.657Z,94388.65
2023-04-22T22:33:08.703Z,94365.64
2023-04-22T22:41:32.776Z,94374.38
2023-04-22T22:49:55.724Z,94367.67
2023-04-22T22:58:18.640Z,94328.77
2023-04-22T23:06:41.728Z,94281.93
2023-04-22T23:15:06.138Z,94242.09
2023-04-22T23:23:29.906Z,94230.55
2023-04-22T23:31:53.103Z,94217.64
2023-04-22T23:40:16.270Z,94175.15
2023-04-22T23:48:39.696Z,94128.88
2023-04-22T23:57:02.875Z,94109.94
